createdAt,value
2023-03-30T00:00:43.286Z,55.58
2023-03-30T00:01:54.837Z,55.42
2023-03-30T00:02:58.838Z,55.46
2023-03-30T00:04:02.751Z,55.51
2023-03-30T00:05:06.522Z,55.50
2023-03-30T00:06:10.772Z,55.46
2023-03-30T00:07:13.584Z,55.54
2023-03-30T00:08:18.712Z,55.55
2023-03-30T00:09:22.824Z,55.57
2023-03-30T00:10:27.193Z,55.69
2023-03-30T00:11:34.648Z,55.59
2023-03-30T00:12:38.098Z,55.61
2023-03-30T00:13:42.052Z,55.70
2023-03-30T00:14:44.896Z,55.60
2023-03-30T00:15:50.201Z,55.65
2023-03-30T00:16:53.539Z,55.80
2023-03-30T00:17:56.541Z,55.83
2023-03-30T00:19:00.510Z,55.82
2023-03-30T00:20:09.035Z,55.82
2023-03-30T00:21:12.146Z,55.94
2023-03-30T00:22:15.097Z,56.11
2023-03-30T00:23:19.213Z,56.01
2023-03-30T00:24:22.463Z,56.13
2023-03-30T00:25:25.689Z,55.90
2023-03-30T00:26:28.573Z,56.22
2023-03-30T00:27:31.455Z,55.94
2023-03-30T00:28:34.791Z,56.01
2023-03-30T00:29:37.671Z,56.13
2023-03-30T00:30:40.684Z,56.18
2023-03-30T00:31:43.938Z,55.94
2023-03-30T00:32:47.360Z,56.17
2023-03-30T00:33:51.892Z,56.04
2023-03-30T00:34:55.728Z,56.16
2023-03-30T00:35:58.968Z,56.41
2023-03-30T00:37:04.092Z,56.20
2023-03-30T00:38:07.017Z,56.36
2023-03-30T00:39:10.012Z,56.46
2023-03-30T00:40:20.820Z,56.28
2023-03-30T00:41:24.243Z,56.31
2023-03-30T00:42:27.171Z,56.44
2023-03-30T00:43:30.605Z,56.47
2023-03-30T00:45:11.706Z,56.44
2023-03-30T00:46:14.759Z,56.62
2023-03-30T00:47:18.059Z,56.62
2023-03-30T00:48:23.120Z,56.66
2023-03-30T00:49:26.613Z,56.71
2023-03-30T00:50:36.989Z,56.88
2023-03-30T00:51:42.756Z,56.75
2023-03-30T00:52:46.404Z,56.88
2023-03-30T00:53:52.819Z,56.81
2023-03-30T00:54:57.740Z,56.86
2023-03-30T00:56:02.464Z,56.92
2023-03-30T00:57:07.832Z,57.05
2023-03-30T00:58:12.122Z,57.17
2023-03-30T00:59:15.800Z,56.99
2023-03-30T01:00:19.929Z,57.16
2023-03-30T01:01:28.816Z,57.18
2023-03-30T01:02:37.949Z,57.17
2023-03-30T01:03:45.754Z,57.08
2023-03-30T01:04:53.975Z,57.21
2023-03-30T01:06:00.031Z,57.35
2023-03-30T01:07:05.143Z,57.44
2023-03-30T01:08:10.005Z,57.43
2023-03-30T01:09:14.050Z,57.32
2023-03-30T01:10:17.879Z,57.45
2023-03-30T01:11:21.683Z,57.51
2023-03-30T01:12:24.659Z,57.38
2023-03-30T01:13:30.038Z,57.54
2023-03-30T01:14:33.389Z,57.59
2023-03-30T01:15:44.620Z,57.70
2023-03-30T01:16:53.510Z,57.65
2023-03-30T01:18:40.140Z,57.71
2023-03-30T01:20:13.113Z,58.02
2023-03-30T01:21:34.629Z,57.85
2023-03-30T01:23:02.275Z,57.98
2023-03-30T01:24:24.062Z,58.12
2023-03-30T01:25:36.884Z,58.12
2023-03-30T01:26:43.251Z,58.20
2023-03-30T01:28:06.452Z,58.32
2023-03-30T01:29:17.442Z,58.20
2023-03-30T01:32:02.401Z,58.45
2023-03-30T01:33:17.676Z,58.48
2023-03-30T01:34:43.117Z,58.66
2023-03-30T01:36:10.840Z,58.45
2023-03-30T01:37:41.846Z,58.53
2023-03-30T01:38:44.775Z,58.51
2023-03-30T01:39:53.547Z,58.51
2023-03-30T01:41:20.146Z,58.68
2023-03-30T01:42:41.407Z,58.60
2023-03-30T01:43:58.804Z,58.74
2023-03-30T01:45:42.732Z,58.69
2023-03-30T01:46:59.864Z,58.70
2023-03-30T01:48:12.925Z,58.89
2023-03-30T01:49:30.589Z,58.86
2023-03-30T01:50:44.565Z,58.86
2023-03-30T01:52:00.031Z,58.77
2023-03-30T01:53:11.837Z,58.88
2023-03-30T01:54:25.273Z,59.02
2023-03-30T01:55:41.613Z,58.92
2023-03-30T01:57:03.346Z,58.99
2023-03-30T01:58:09.659Z,59.12
2023-03-30T01:59:20.248Z,59.12
2023-03-30T02:00:24.336Z,59.12
2023-03-30T02:01:28.431Z,59.14
2023-03-30T02:02:33.058Z,59.32
2023-03-30T02:03:39.314Z,59.45
2023-03-30T02:04:43.436Z,59.59
2023-03-30T02:05:50.105Z,59.63
2023-03-30T02:06:59.870Z,59.59
2023-03-30T02:08:09.745Z,59.46
2023-03-30T02:09:15.972Z,59.73
2023-03-30T02:10:20.161Z,59.75
2023-03-30T02:11:26.820Z,59.75
2023-03-30T02:12:31.292Z,59.86
2023-03-30T02:13:35.893Z,59.87
2023-03-30T02:14:40.631Z,59.89
2023-03-30T02:15:46.562Z,59.99
2023-03-30T02:16:50.324Z,60.04
2023-03-30T02:17:53.136Z,59.96
2023-03-30T02:18:57.882Z,60.01
2023-03-30T02:20:00.774Z,60.11
2023-03-30T02:21:03.896Z,60.22
2023-03-30T02:22:08.756Z,60.13
2023-03-30T02:23:11.552Z,60.10
2023-03-30T02:24:18.837Z,60.25
2023-03-30T02:25:23.368Z,60.41
2023-03-30T02:26:27.308Z,60.42
2023-03-30T02:27:32.142Z,60.36
2023-03-30T02:28:35.633Z,60.51
2023-03-30T02:29:41.070Z,60.43
2023-03-30T02:30:45.377Z,60.40
2023-03-30T02:31:49.805Z,60.53
2023-03-30T02:32:55.024Z,60.70
2023-03-30T02:34:04.410Z,60.53
2023-03-30T02:35:19.938Z,60.72
2023-03-30T02:36:38.030Z,60.61
2023-03-30T02:37:46.695Z,60.69
2023-03-30T02:39:05.171Z,60.83
2023-03-30T02:40:40.768Z,60.71
2023-03-30T02:41:52.719Z,60.87
2023-03-30T02:42:55.544Z,60.90
2023-03-30T02:44:01.175Z,60.92
2023-03-30T02:45:11.221Z,60.98
2023-03-30T02:46:28.582Z,60.74
2023-03-30T02:47:34.223Z,60.96
2023-03-30T02:48:37.287Z,60.91
2023-03-30T02:49:43.477Z,61.01
2023-03-30T02:50:56.434Z,61.06
2023-03-30T02:52:38.181Z,61.24
2023-03-30T02:53:52.863Z,61.18
2023-03-30T02:55:28.720Z,61.25
2023-03-30T02:57:09.290Z,61.36
2023-03-30T02:58:33.941Z,61.44
2023-03-30T03:00:13.266Z,61.59
2023-03-30T03:01:19.389Z,61.34
2023-03-30T03:02:30.171Z,61.40
2023-03-30T03:03:45.006Z,61.46
2023-03-30T03:04:50.054Z,61.61
2023-03-30T03:06:15.781Z,61.69
2023-03-30T03:07:25.185Z,61.62
2023-03-30T03:08:34.131Z,61.62
2023-03-30T03:09:37.901Z,61.66
2023-03-30T03:10:40.691Z,61.81
2023-03-30T03:11:43.652Z,61.87
2023-03-30T03:12:46.892Z,61.70
2023-03-30T03:13:50.527Z,61.89
2023-03-30T03:14:54.141Z,61.85
2023-03-30T03:15:57.268Z,61.97
2023-03-30T03:17:02.545Z,61.82
2023-03-30T03:18:10.713Z,61.96
2023-03-30T03:19:14.014Z,61.95
2023-03-30T03:20:17.330Z,61.99
2023-03-30T03:21:20.045Z,62.09
2023-03-30T03:22:22.768Z,62.17
2023-03-30T03:23:26.909Z,62.20
2023-03-30T03:24:33.894Z,62.14
2023-03-30T03:25:57.000Z,62.26
2023-03-30T03:27:00.007Z,62.30
2023-03-30T03:28:04.131Z,62.34
2023-03-30T03:29:17.986Z,62.45
2023-03-30T03:30:20.725Z,62.53
2023-03-30T03:31:31.596Z,62.44
2023-03-30T03:32:35.395Z,62.49
2023-03-30T03:33:38.411Z,62.59
2023-03-30T03:34:48.675Z,62.76
2023-03-30T03:35:54.317Z,63.05
2023-03-30T03:36:58.415Z,62.86
2023-03-30T03:38:03.124Z,62.78
2023-03-30T03:39:05.989Z,62.91
2023-03-30T03:40:11.320Z,63.01
2023-03-30T03:41:14.389Z,62.92
2023-03-30T03:42:17.884Z,63.03
2023-03-30T03:43:34.372Z,63.03
2023-03-30T03:44:37.848Z,63.19
2023-03-30T03:45:40.679Z,63.17
2023-03-30T03:46:43.421Z,63.16
2023-03-30T03:47:46.292Z,63.29
2023-03-30T03:48:49.182Z,63.35
2023-03-30T03:49:52.398Z,63.29
2023-03-30T03:50:57.043Z,63.29
2023-03-30T03:51:59.956Z,63.53
2023-03-30T03:53:02.789Z,63.31
2023-03-30T03:54:05.747Z,63.55
2023-03-30T03:55:09.402Z,63.51
2023-03-30T03:56:14.399Z,63.64
2023-03-30T03:57:17.312Z,63.61
2023-03-30T03:58:20.881Z,63.90
2023-03-30T03:59:23.790Z,63.83
2023-03-30T04:00:26.965Z,63.91
2023-03-30T04:01:30.635Z,63.95
2023-03-30T04:02:33.449Z,63.90
2023-03-30T04:03:36.341Z,64.00
2023-03-30T04:04:39.274Z,64.14
2023-03-30T04:05:42.221Z,64.07
2023-03-30T04:06:46.185Z,64.15
2023-03-30T04:07:50.098Z,64.19
2023-03-30T04:08:53.158Z,64.22
2023-03-30T04:10:07.971Z,64.32
2023-03-30T04:11:19.995Z,64.52
2023-03-30T04:12:41.695Z,64.44
2023-03-30T04:13:59.360Z,64.49
2023-03-30T04:15:16.896Z,64.46
2023-03-30T04:16:45.844Z,64.57
2023-03-30T04:18:11.167Z,64.63
2023-03-30T04:19:31.601Z,64.73
2023-03-30T04:21:05.485Z,64.85
2023-03-30T04:22:52.647Z,64.78
2023-03-30T04:24:14.065Z,64.80
2023-03-30T04:25:55.156Z,64.94
2023-03-30T04:27:17.118Z,64.85
2023-03-30T04:28:40.667Z,65.09
2023-03-30T04:30:02.258Z,65.21
2023-03-30T04:31:10.902Z,65.08
2023-03-30T04:32:38.978Z,65.12
2023-03-30T04:34:09.560Z,65.34
2023-03-30T04:35:14.343Z,65.18
2023-03-30T04:36:35.924Z,65.28
2023-03-30T04:37:58.301Z,65.31
2023-03-30T04:39:22.731Z,65.38
2023-03-30T04:40:53.144Z,65.47
2023-03-30T04:42:14.197Z,65.39
2023-03-30T04:43:36.185Z,65.49
2023-03-30T04:44:50.635Z,65.71
2023-03-30T04:46:14.211Z,65.60
2023-03-30T04:47:38.430Z,65.60
2023-03-30T04:49:01.657Z,65.58
2023-03-30T04:50:33.567Z,65.70
2023-03-30T04:52:01.284Z,65.80
2023-03-30T04:53:27.138Z,65.68
2023-03-30T04:54:36.037Z,65.80
2023-03-30T04:55:57.458Z,65.91
2023-03-30T04:57:23.271Z,65.93
2023-03-30T04:58:43.134Z,65.73
2023-03-30T05:00:12.207Z,65.79
2023-03-30T05:01:47.255Z,65.80
2023-03-30T05:02:59.156Z,65.83
2023-03-30T05:04:19.227Z,65.77
2023-03-30T05:05:40.292Z,65.83
2023-03-30T05:06:44.253Z,65.79
2023-03-30T05:08:05.706Z,65.85
2023-03-30T05:09:34.726Z,66.00
2023-03-30T05:11:05.233Z,66.03
2023-03-30T05:12:26.409Z,65.89
2023-03-30T05:13:37.129Z,66.01
2023-03-30T05:15:15.966Z,66.01
2023-03-30T05:16:24.618Z,65.98
2023-03-30T05:17:43.938Z,66.02
2023-03-30T05:19:09.897Z,66.01
2023-03-30T05:20:13.637Z,65.91
2023-03-30T05:21:22.411Z,66.05
2023-03-30T05:22:49.610Z,65.92
2023-03-30T05:24:30.612Z,66.13
2023-03-30T05:25:55.176Z,66.20
2023-03-30T05:27:24.263Z,66.07
2023-03-30T05:28:33.063Z,66.21
2023-03-30T05:30:11.344Z,66.29
2023-03-30T05:31:33.216Z,66.34
2023-03-30T05:32:49.034Z,66.32
2023-03-30T05:34:20.700Z,66.40
2023-03-30T05:35:34.913Z,66.52
2023-03-30T05:36:59.247Z,66.30
2023-03-30T05:38:14.497Z,66.30
2023-03-30T05:39:17.268Z,66.39
2023-03-30T05:40:28.912Z,66.48
2023-03-30T05:41:46.543Z,66.46
2023-03-30T05:43:04.052Z,66.37
2023-03-30T05:44:30.107Z,66.42
2023-03-30T05:45:51.809Z,66.17
2023-03-30T05:47:07.924Z,66.33
2023-03-30T05:48:36.611Z,66.52
2023-03-30T05:49:55.185Z,66.41
2023-03-30T05:51:06.099Z,66.39
2023-03-30T05:52:18.194Z,66.34
2023-03-30T05:53:59.410Z,66.45
2023-03-30T05:55:23.893Z,66.35
2023-03-30T05:56:40.151Z,66.42
2023-03-30T05:58:23.086Z,66.56
2023-03-30T05:59:37.322Z,66.50
2023-03-30T06:01:06.196Z,66.43
2023-03-30T06:02:12.999Z,66.50
2023-03-30T06:03:16.448Z,66.31
2023-03-30T06:04:20.247Z,66.42
2023-03-30T06:05:24.535Z,66.40
2023-03-30T06:06:28.314Z,66.61
2023-03-30T06:07:31.123Z,66.63
2023-03-30T06:08:34.486Z,66.43
2023-03-30T06:09:39.023Z,66.53
2023-03-30T06:10:53.362Z,66.48
2023-03-30T06:11:56.616Z,66.49
2023-03-30T06:13:01.247Z,66.62
2023-03-30T06:14:11.972Z,66.59
2023-03-30T06:15:15.730Z,66.49
2023-03-30T06:16:29.285Z,66.53
2023-03-30T06:17:33.323Z,66.35
2023-03-30T06:18:36.117Z,66.53
2023-03-30T06:19:42.353Z,66.44
2023-03-30T06:20:48.815Z,66.49
2023-03-30T06:21:54.032Z,66.39
2023-03-30T06:23:21.356Z,66.44
2023-03-30T06:24:25.689Z,66.32
2023-03-30T06:25:29.758Z,66.34
2023-03-30T06:26:33.204Z,66.26
2023-03-30T06:27:36.432Z,66.54
2023-03-30T06:28:39.550Z,66.77
2023-03-30T06:29:43.727Z,66.41
2023-03-30T06:30:48.818Z,66.31
2023-03-30T06:31:52.010Z,66.40
2023-03-30T06:33:18.414Z,66.37
2023-03-30T06:34:28.819Z,66.49
2023-03-30T06:35:31.973Z,66.29
2023-03-30T06:36:45.171Z,66.32
2023-03-30T06:37:49.181Z,66.46
2023-03-30T06:38:52.247Z,66.34
2023-03-30T06:39:56.533Z,66.27
2023-03-30T06:41:03.489Z,66.30
2023-03-30T06:42:10.112Z,66.46
2023-03-30T06:43:26.611Z,66.49
2023-03-30T06:44:56.265Z,66.32
2023-03-30T06:46:00.309Z,66.34
2023-03-30T06:47:05.570Z,66.29
2023-03-30T06:48:07.491Z,66.27
2023-03-30T06:49:13.223Z,66.39
2023-03-30T06:50:19.376Z,66.23
2023-03-30T06:51:38.081Z,66.25
2023-03-30T06:52:42.088Z,66.18
2023-03-30T06:53:44.853Z,66.38
2023-03-30T06:54:47.783Z,66.39
2023-03-30T06:55:57.856Z,66.25
2023-03-30T06:57:01.398Z,66.36
2023-03-30T06:58:04.227Z,65.93
2023-03-30T06:59:07.158Z,66.03
2023-03-30T07:00:18.351Z,66.02
2023-03-30T07:01:40.138Z,65.97
2023-03-30T07:02:56.805Z,65.96
2023-03-30T07:04:07.447Z,66.05
2023-03-30T07:05:30.021Z,65.82
2023-03-30T07:06:41.479Z,66.10
2023-03-30T07:07:45.291Z,65.60
2023-03-30T07:08:48.455Z,65.80
2023-03-30T07:09:54.977Z,65.70
2023-03-30T07:10:58.983Z,65.69
2023-03-30T07:12:05.336Z,65.63
2023-03-30T07:13:10.244Z,65.87
2023-03-30T07:14:13.646Z,65.95
2023-03-30T07:15:16.769Z,65.70
2023-03-30T07:16:19.947Z,65.96
2023-03-30T07:17:26.463Z,65.53
2023-03-30T07:18:29.744Z,65.70
2023-03-30T07:19:32.592Z,65.46
2023-03-30T07:20:35.403Z,65.43
2023-03-30T07:22:01.304Z,65.26
2023-03-30T07:23:04.200Z,64.99
2023-03-30T07:24:08.253Z,65.15
2023-03-30T07:25:12.237Z,65.36
2023-03-30T07:26:15.626Z,65.02
2023-03-30T07:27:36.238Z,65.07
2023-03-30T07:28:40.409Z,64.69
2023-03-30T07:29:43.549Z,64.92
2023-03-30T07:30:46.507Z,65.28
2023-03-30T07:31:49.375Z,64.87
2023-03-30T07:32:52.645Z,65.54
2023-03-30T07:33:56.063Z,65.05
2023-03-30T07:35:01.559Z,64.54
2023-03-30T07:36:04.804Z,65.09
2023-03-30T07:37:08.042Z,65.04
2023-03-30T07:38:11.215Z,65.16
2023-03-30T07:39:16.900Z,65.21
2023-03-30T07:40:21.433Z,64.92
2023-03-30T07:41:24.371Z,65.05
2023-03-30T07:42:30.009Z,65.03
2023-03-30T07:43:33.160Z,64.74
2023-03-30T07:44:37.296Z,65.17
2023-03-30T07:45:42.384Z,64.99
2023-03-30T07:46:46.598Z,64.47
2023-03-30T07:47:54.663Z,64.82
2023-03-30T07:48:58.138Z,64.61
2023-03-30T07:50:01.985Z,64.76
2023-03-30T07:51:07.435Z,65.09
2023-03-30T07:52:13.003Z,64.86
2023-03-30T07:53:26.451Z,64.67
2023-03-30T07:54:29.272Z,64.53
2023-03-30T07:55:41.392Z,64.08
2023-03-30T07:56:55.050Z,64.12
2023-03-30T07:57:58.133Z,64.31
2023-03-30T07:59:01.899Z,64.44
2023-03-30T08:00:10.484Z,64.13
2023-03-30T08:01:34.167Z,64.26
2023-03-30T08:03:00.128Z,64.27
2023-03-30T08:04:04.571Z,64.50
2023-03-30T08:05:09.778Z,64.43
2023-03-30T08:06:22.489Z,64.36
2023-03-30T08:07:28.810Z,64.37
2023-03-30T08:08:39.151Z,64.06
2023-03-30T08:09:42.169Z,64.05
2023-03-30T08:10:45.001Z,63.68
2023-03-30T08:11:47.803Z,63.96
2023-03-30T08:12:50.774Z,64.09
2023-03-30T08:13:53.605Z,64.07
2023-03-30T08:14:56.571Z,63.85
2023-03-30T08:15:59.534Z,63.67
2023-03-30T08:17:02.383Z,63.02
2023-03-30T08:18:08.269Z,63.08
2023-03-30T08:19:12.099Z,63.09
2023-03-30T08:20:15.097Z,62.90
2023-03-30T08:21:17.982Z,62.71
2023-03-30T08:22:21.085Z,62.84
2023-03-30T08:23:24.170Z,63.06
2023-03-30T08:24:27.064Z,63.04
2023-03-30T08:25:30.036Z,63.28
2023-03-30T08:26:32.924Z,63.42
2023-03-30T08:27:36.405Z,63.38
2023-03-30T08:28:39.738Z,63.64
2023-03-30T08:29:42.589Z,63.63
2023-03-30T08:30:45.522Z,63.37
2023-03-30T08:31:48.541Z,63.52
2023-03-30T08:32:52.132Z,63.72
2023-03-30T08:33:55.120Z,63.00
2023-03-30T08:34:57.915Z,62.88
2023-03-30T08:36:01.000Z,62.72
2023-03-30T08:37:04.009Z,62.55
2023-03-30T08:38:06.809Z,62.24
2023-03-30T08:39:10.920Z,62.24
2023-03-30T08:40:15.041Z,62.49
2023-03-30T08:41:18.772Z,62.36
2023-03-30T08:42:21.540Z,62.29
2023-03-30T08:43:36.813Z,62.35
2023-03-30T08:44:41.129Z,62.07
2023-03-30T08:45:44.627Z,62.21
2023-03-30T08:46:48.404Z,62.30
2023-03-30T08:47:52.742Z,62.01
2023-03-30T08:48:59.567Z,62.23
2023-03-30T08:50:06.957Z,62.06
2023-03-30T08:51:19.134Z,62.35
2023-03-30T08:52:23.957Z,62.21
2023-03-30T08:53:28.541Z,62.57
2023-03-30T08:54:32.506Z,62.11
2023-03-30T08:55:48.777Z,61.91
2023-03-30T08:56:54.958Z,61.80
2023-03-30T08:58:02.233Z,61.94
2023-03-30T08:59:23.645Z,61.52
2023-03-30T09:00:34.096Z,61.86
2023-03-30T09:01:37.019Z,61.85
2023-03-30T09:02:43.168Z,61.59
2023-03-30T09:04:04.895Z,61.61
2023-03-30T09:05:23.101Z,61.24
2023-03-30T09:06:31.832Z,61.26
2023-03-30T09:07:45.153Z,60.43
2023-03-30T09:08:49.009Z,60.86
2023-03-30T09:09:52.376Z,60.60
2023-03-30T09:10:58.135Z,60.39
2023-03-30T09:12:13.199Z,59.90
2023-03-30T09:13:18.873Z,59.57
2023-03-30T09:14:29.122Z,59.45
2023-03-30T09:15:39.283Z,59.47
2023-03-30T09:16:42.048Z,59.77
2023-03-30T09:18:00.709Z,59.64
2023-03-30T09:19:05.658Z,59.79
2023-03-30T09:20:12.403Z,59.54
2023-03-30T09:21:16.038Z,59.76
2023-03-30T09:22:19.592Z,59.72
2023-03-30T09:23:22.479Z,59.78
2023-03-30T09:24:27.009Z,59.83
2023-03-30T09:25:42.484Z,59.69
2023-03-30T09:26:49.559Z,59.76
2023-03-30T09:28:12.364Z,59.93
2023-03-30T09:29:39.665Z,60.15
2023-03-30T09:30:45.737Z,60.21
2023-03-30T09:31:55.243Z,59.79
2023-03-30T09:33:00.161Z,60.17
2023-03-30T09:34:09.261Z,60.34
2023-03-30T09:35:19.241Z,60.11
2023-03-30T09:36:40.976Z,60.16
2023-03-30T09:37:43.660Z,60.57
2023-03-30T09:38:46.391Z,60.21
2023-03-30T09:39:50.894Z,59.67
2023-03-30T09:41:07.520Z,59.66
2023-03-30T09:42:21.870Z,60.16
2023-03-30T09:43:46.417Z,60.36
2023-03-30T09:44:51.952Z,60.41
2023-03-30T09:45:55.445Z,59.79
2023-03-30T09:46:59.476Z,59.65
2023-03-30T09:48:08.522Z,59.57
2023-03-30T09:49:13.213Z,58.96
2023-03-30T09:50:26.848Z,59.32
2023-03-30T09:51:31.285Z,59.50
2023-03-30T09:52:38.924Z,59.31
2023-03-30T09:53:42.645Z,59.68
2023-03-30T09:54:45.345Z,59.56
2023-03-30T09:55:57.568Z,59.51
2023-03-30T09:57:00.557Z,59.63
2023-03-30T09:58:26.741Z,59.30
2023-03-30T09:59:33.952Z,58.98
2023-03-30T10:00:36.712Z,58.88
2023-03-30T10:01:39.666Z,59.23
2023-03-30T10:02:54.411Z,58.83
2023-03-30T10:04:11.002Z,58.34
2023-03-30T10:05:18.360Z,58.50
2023-03-30T10:06:21.646Z,58.06
2023-03-30T10:07:26.532Z,57.74
2023-03-30T10:08:29.681Z,58.53
2023-03-30T10:09:32.497Z,58.29
2023-03-30T10:10:36.809Z,58.29
2023-03-30T10:11:42.325Z,58.26
2023-03-30T10:12:45.050Z,58.53
2023-03-30T10:13:49.623Z,58.68
2023-03-30T10:15:01.600Z,59.13
2023-03-30T10:16:09.238Z,58.01
2023-03-30T10:17:24.565Z,58.15
2023-03-30T10:18:28.854Z,57.70
2023-03-30T10:19:35.540Z,58.33
2023-03-30T10:20:40.341Z,58.90
2023-03-30T10:21:47.096Z,58.64
2023-03-30T10:22:53.176Z,58.32
2023-03-30T10:24:08.741Z,57.67
2023-03-30T10:25:18.219Z,57.56
2023-03-30T10:26:21.048Z,58.01
2023-03-30T10:27:34.554Z,57.06
2023-03-30T10:28:37.637Z,57.20
2023-03-30T10:29:45.409Z,56.95
2023-03-30T10:30:52.702Z,57.19
2023-03-30T10:32:02.183Z,57.07
2023-03-30T10:33:10.193Z,57.17
2023-03-30T10:34:42.911Z,55.31
2023-03-30T10:35:47.939Z,55.30
2023-03-30T10:36:54.699Z,55.43
2023-03-30T10:37:58.973Z,55.61
2023-03-30T10:39:22.343Z,56.54
2023-03-30T10:40:32.602Z,56.68
2023-03-30T10:41:37.663Z,56.46
2023-03-30T10:42:40.968Z,56.51
2023-03-30T10:43:44.993Z,56.03
2023-03-30T10:44:50.765Z,55.26
2023-03-30T10:45:54.559Z,54.85
2023-03-30T10:47:08.528Z,54.43
2023-03-30T10:48:23.570Z,55.12
2023-03-30T10:49:38.262Z,55.62
2023-03-30T10:50:47.303Z,55.89
2023-03-30T10:52:09.584Z,55.68
2023-03-30T10:53:24.769Z,54.15
2023-03-30T10:54:33.312Z,54.00
2023-03-30T10:55:41.756Z,53.70
2023-03-30T10:56:47.125Z,53.59
2023-03-30T10:57:56.707Z,54.06
2023-03-30T10:59:02.166Z,54.63
2023-03-30T11:00:11.340Z,54.52
2023-03-30T11:01:37.412Z,54.74
2023-03-30T11:02:54.353Z,55.42
2023-03-30T11:04:06.790Z,55.10
2023-03-30T11:05:31.997Z,55.14
2023-03-30T11:06:38.670Z,55.07
2023-03-30T11:07:44.208Z,54.32
2023-03-30T11:08:49.774Z,53.17
2023-03-30T11:09:54.654Z,53.67
2023-03-30T11:10:59.188Z,53.84
2023-03-30T11:12:04.738Z,53.35
2023-03-30T11:13:11.611Z,52.81
2023-03-30T11:14:19.249Z,53.23
2023-03-30T11:15:26.670Z,53.59
2023-03-30T11:16:52.834Z,53.52
2023-03-30T11:18:14.883Z,53.62
2023-03-30T11:19:26.213Z,53.09
2023-03-30T11:20:31.976Z,53.20
2023-03-30T11:21:42.592Z,53.93
2023-03-30T11:22:48.203Z,54.05
2023-03-30T11:24:07.500Z,54.23
2023-03-30T11:25:36.299Z,54.51
2023-03-30T11:26:45.389Z,54.63
2023-03-30T11:27:56.568Z,54.95
2023-03-30T11:28:59.326Z,54.71
2023-03-30T11:30:08.988Z,54.52
2023-03-30T11:31:19.008Z,54.51
2023-03-30T11:32:34.795Z,54.51
2023-03-30T11:33:51.562Z,54.70
2023-03-30T11:35:26.770Z,54.98
2023-03-30T11:36:37.921Z,54.91
2023-03-30T11:37:52.740Z,54.52
2023-03-30T11:38:58.833Z,54.65
2023-03-30T11:40:13.455Z,54.27
2023-03-30T11:41:36.968Z,54.03
2023-03-30T11:42:39.990Z,53.86
2023-03-30T11:43:42.863Z,54.00
2023-03-30T11:44:45.850Z,53.92
2023-03-30T11:46:03.280Z,54.03
2023-03-30T11:47:20.460Z,54.21
2023-03-30T11:48:38.530Z,53.61
2023-03-30T11:50:07.751Z,53.50
2023-03-30T11:51:19.598Z,53.33
2023-03-30T11:52:28.706Z,54.04
2023-03-30T11:53:41.074Z,53.67
2023-03-30T11:55:02.205Z,53.53
2023-03-30T11:56:06.924Z,53.51
2023-03-30T11:57:32.817Z,53.02
2023-03-30T11:58:37.445Z,53.51
2023-03-30T11:59:40.409Z,53.17
2023-03-30T12:00:49.723Z,53.28
2023-03-30T12:02:04.908Z,52.89
2023-03-30T12:03:22.991Z,52.60
2023-03-30T12:04:32.626Z,51.59
2023-03-30T12:05:38.287Z,51.11
2023-03-30T12:06:42.515Z,50.18
2023-03-30T12:08:21.021Z,50.62
2023-03-30T12:09:35.581Z,51.16
2023-03-30T12:10:42.448Z,51.16
2023-03-30T12:11:54.292Z,51.18
2023-03-30T12:12:57.746Z,51.39
2023-03-30T12:14:01.342Z,51.58
2023-03-30T12:15:16.275Z,51.79
2023-03-30T12:16:39.518Z,52.01
2023-03-30T12:17:51.712Z,51.71
2023-03-30T12:19:03.687Z,52.13
2023-03-30T12:20:09.421Z,52.35
2023-03-30T12:21:15.298Z,52.33
2023-03-30T12:22:25.207Z,52.32
2023-03-30T12:23:40.805Z,52.51
2023-03-30T12:24:51.807Z,52.48
2023-03-30T12:26:13.662Z,52.43
2023-03-30T12:27:16.499Z,52.34
2023-03-30T12:28:24.251Z,52.06
2023-03-30T12:30:01.770Z,52.25
2023-03-30T12:31:06.999Z,52.35
2023-03-30T12:32:20.252Z,52.50
2023-03-30T12:33:28.582Z,52.74
2023-03-30T12:34:42.916Z,52.60
2023-03-30T12:35:48.563Z,52.59
2023-03-30T12:37:05.471Z,52.93
2023-03-30T12:38:08.429Z,53.33
2023-03-30T12:39:18.060Z,53.57
2023-03-30T12:40:22.451Z,53.75
2023-03-30T12:41:26.928Z,53.97
2023-03-30T12:42:34.741Z,54.14
2023-03-30T12:43:41.669Z,54.16
2023-03-30T12:45:01.712Z,54.21
2023-03-30T12:46:14.234Z,54.15
2023-03-30T12:47:20.536Z,54.54
2023-03-30T12:48:37.575Z,54.73
2023-03-30T12:49:50.525Z,54.74
2023-03-30T12:51:07.891Z,54.93
2023-03-30T12:52:14.307Z,55.11
2023-03-30T12:53:36.055Z,55.21
2023-03-30T12:55:08.774Z,55.39
2023-03-30T12:56:17.778Z,55.61
2023-03-30T12:57:39.260Z,55.63
2023-03-30T12:59:00.798Z,55.63
2023-03-30T13:00:19.184Z,55.63
2023-03-30T13:01:41.461Z,55.93
2023-03-30T13:02:44.452Z,55.79
2023-03-30T13:03:52.991Z,56.04
2023-03-30T13:04:56.737Z,56.19
2023-03-30T13:06:01.384Z,55.99
2023-03-30T13:07:06.327Z,56.15
2023-03-30T13:08:18.570Z,55.95
2023-03-30T13:09:25.454Z,56.37
2023-03-30T13:10:31.809Z,56.43
2023-03-30T13:12:04.022Z,56.60
2023-03-30T13:13:16.279Z,56.45
2023-03-30T13:14:44.193Z,56.40
2023-03-30T13:15:49.426Z,56.53
2023-03-30T13:16:55.189Z,56.91
2023-03-30T13:18:23.490Z,56.79
2023-03-30T13:19:32.058Z,57.09
2023-03-30T13:20:55.044Z,57.15
2023-03-30T13:22:04.534Z,57.27
2023-03-30T13:23:10.049Z,57.23
2023-03-30T13:24:45.509Z,57.48
2023-03-30T13:25:51.362Z,57.78
2023-03-30T13:26:54.501Z,57.57
2023-03-30T13:27:58.800Z,57.75
2023-03-30T13:29:10.318Z,58.18
2023-03-30T13:30:14.609Z,58.40
2023-03-30T13:31:36.762Z,58.60
2023-03-30T13:32:39.545Z,58.83
2023-03-30T13:33:45.938Z,59.27
2023-03-30T13:35:06.202Z,59.08
2023-03-30T13:36:15.355Z,59.46
2023-03-30T13:37:24.375Z,59.69
2023-03-30T13:38:27.029Z,59.95
2023-03-30T13:39:33.536Z,60.14
2023-03-30T13:40:57.793Z,60.63
2023-03-30T13:42:33.327Z,60.87
2023-03-30T13:43:55.187Z,60.85
2023-03-30T13:45:07.709Z,61.12
2023-03-30T13:46:16.782Z,61.09
2023-03-30T13:47:40.273Z,61.17
2023-03-30T13:48:46.294Z,61.48
2023-03-30T13:49:59.836Z,61.60
2023-03-30T13:51:03.521Z,61.74
2023-03-30T13:52:12.340Z,62.05
2023-03-30T13:53:16.439Z,62.11
2023-03-30T13:54:22.693Z,62.04
2023-03-30T13:55:33.652Z,61.90
2023-03-30T13:56:38.495Z,62.55
2023-03-30T13:57:42.207Z,62.19
2023-03-30T13:58:49.775Z,63.04
2023-03-30T13:59:54.368Z,62.74
2023-03-30T14:01:00.878Z,62.82
2023-03-30T14:02:04.705Z,62.95
2023-03-30T14:03:26.120Z,63.27
2023-03-30T14:04:30.475Z,63.39
2023-03-30T14:05:34.697Z,63.54
2023-03-30T14:06:44.216Z,64.04
2023-03-30T14:07:47.778Z,64.09
2023-03-30T14:08:57.884Z,64.25
2023-03-30T14:10:11.895Z,64.63
2023-03-30T14:11:17.893Z,65.07
2023-03-30T14:12:21.108Z,65.31
2023-03-30T14:13:24.435Z,65.86
2023-03-30T14:14:37.635Z,65.71
2023-03-30T14:15:41.247Z,65.92
2023-03-30T14:16:44.023Z,66.77
2023-03-30T14:17:51.358Z,66.50
2023-03-30T14:19:12.527Z,66.85
2023-03-30T14:20:26.520Z,67.62
2023-03-30T14:21:29.610Z,67.24
2023-03-30T14:22:36.818Z,67.46
2023-03-30T14:23:41.300Z,67.71
2023-03-30T14:25:00.378Z,67.92
2023-03-30T14:26:05.044Z,68.34
2023-03-30T14:27:15.119Z,68.35
2023-03-30T14:28:18.951Z,68.49
2023-03-30T14:29:31.308Z,68.69
2023-03-30T14:30:34.895Z,69.12
2023-03-30T14:31:39.171Z,68.95
2023-03-30T14:32:42.291Z,68.74
2023-03-30T14:33:45.942Z,71.23
2023-03-30T14:34:52.454Z,70.24
2023-03-30T14:35:59.049Z,70.44
2023-03-30T14:37:03.586Z,70.08
2023-03-30T14:38:16.260Z,70.80
2023-03-30T14:39:24.118Z,70.41
2023-03-30T14:40:27.673Z,70.79
2023-03-30T14:41:31.664Z,70.65
2023-03-30T14:42:34.622Z,70.83
2023-03-30T14:43:40.507Z,70.90
2023-03-30T14:44:44.463Z,71.18
2023-03-30T14:45:47.618Z,70.92
2023-03-30T14:46:52.475Z,71.57
2023-03-30T14:47:56.460Z,71.20
2023-03-30T14:48:59.817Z,71.18
2023-03-30T14:50:05.064Z,71.57
2023-03-30T14:51:21.173Z,71.64
2023-03-30T14:52:30.827Z,71.38
2023-03-30T14:53:34.422Z,71.97
2023-03-30T14:54:38.506Z,72.43
2023-03-30T14:55:41.661Z,72.14
2023-03-30T14:56:57.921Z,72.07
2023-03-30T14:58:01.011Z,72.33
2023-03-30T14:59:03.863Z,73.20
2023-03-30T15:00:15.201Z,73.10
2023-03-30T15:01:21.207Z,72.93
2023-03-30T15:02:26.715Z,72.98
2023-03-30T15:03:34.263Z,72.70
2023-03-30T15:04:38.832Z,73.26
2023-03-30T15:05:42.840Z,74.08